createdAt,value
2023-02-27T00:01:34.291Z,100092.78
2023-02-27T00:06:36.488Z,100142.19
2023-02-27T00:11:38.804Z,100075.56
2023-02-27T00:16:40.497Z,100206.34
2023-02-27T00:21:42.310Z,100206.78
2023-02-27T00:26:44.162Z,100017.81
2023-02-27T00:31:46.226Z,100075.56
2023-02-27T00:36:48.029Z,100082.28
2023-02-27T00:41:49.778Z,100096.59
2023-02-27T00:46:51.555Z,100005.41
2023-02-27T00:51:53.611Z,100061.44
2023-02-27T00:56:55.402Z,100062.81
2023-02-27T01:01:57.210Z,100064.34
2023-02-27T01:06:58.936Z,100060.59
2023-02-27T01:12:00.859Z,100140.19
2023-02-27T01:17:03.414Z,100241.94
2023-02-27T01:22:05.228Z,100023.47
2023-02-27T01:27:07.047Z,99919.16
2023-02-27T01:32:09.043Z,100011.78
2023-02-27T01:37:10.890Z,100051.78
2023-02-27T01:42:22.810Z,99949.97
2023-02-27T01:47:24.599Z,100011.69
2023-02-27T01:52:27.864Z,99959.03
2023-02-27T01:57:29.705Z,100038.88
2023-02-27T02:02:37.749Z,99980.47
2023-02-27T02:07:40.737Z,99951.47
2023-02-27T02:12:43.903Z,99992.59
2023-02-27T02:17:57.777Z,99997.50
2023-02-27T02:23:08.511Z,99922.91
2023-02-27T02:28:54.320Z,100004.63
2023-02-27T02:34:21.671Z,99808.19
2023-02-27T02:39:54.581Z,99991.41
2023-02-27T02:45:30.076Z,99915.47
2023-02-27T02:50:46.827Z,99913.25
2023-02-27T02:56:11.022Z,99908.94
2023-02-27T03:01:17.633Z,100036.47
2023-02-27T03:06:24.602Z,99862.44
2023-02-27T03:11:31.516Z,100008.47
2023-02-27T03:16:43.331Z,100119.75
2023-02-27T03:22:02.980Z,100076.44
2023-02-27T03:27:07.306Z,99978.41
2023-02-27T03:32:21.993Z,100026.28
2023-02-27T03:37:42.293Z,100012.75
2023-02-27T03:42:55.147Z,99832.81
2023-02-27T03:47:57.214Z,100031.41
2023-02-27T03:52:59.373Z,100033.19
2023-02-27T03:58:02.010Z,99893.44
2023-02-27T04:03:05.374Z,100098.16
2023-02-27T04:08:37.128Z,99878.84
2023-02-27T04:14:00.048Z,99943.94
2023-02-27T04:19:20.068Z,100016.25
2023-02-27T04:24:46.557Z,100048.09
2023-02-27T04:29:55.977Z,100021.13
2023-02-27T04:35:03.068Z,100079.13
2023-02-27T04:40:10.987Z,99957.03
2023-02-27T04:45:16.884Z,99993.94
2023-02-27T04:50:34.889Z,100128.84
2023-02-27T04:55:43.675Z,99891.41
2023-02-27T05:00:53.576Z,100040.97
2023-02-27T05:05:59.095Z,99966.16
2023-02-27T05:11:25.443Z,99961.75
2023-02-27T05:16:39.426Z,100014.19
2023-02-27T05:22:00.544Z,100148.78
2023-02-27T05:27:20.887Z,100072.59
2023-02-27T05:32:50.526Z,100105.13
2023-02-27T05:38:30.041Z,99957.44
2023-02-27T05:43:40.046Z,100027.19
2023-02-27T05:48:51.824Z,99924.09
2023-02-27T05:54:01.752Z,99918.72
2023-02-27T05:59:12.112Z,100196.84
2023-02-27T06:04:13.941Z,100175.31
2023-02-27T06:09:16.801Z,100105.72
2023-02-27T06:14:18.553Z,100073.41
2023-02-27T06:19:20.447Z,100195.31
2023-02-27T06:24:22.298Z,100121.00
2023-02-27T06:29:24.067Z,100116.84
2023-02-27T06:34:25.913Z,100054.72
2023-02-27T06:39:28.716Z,100148.84
2023-02-27T06:44:30.543Z,100047.97
2023-02-27T06:49:32.942Z,100050.81
2023-02-27T06:54:34.713Z,100062.50
2023-02-27T06:59:36.439Z,100043.59
2023-02-27T07:04:38.226Z,99941.97
2023-02-27T07:09:39.984Z,99996.66
2023-02-27T07:14:41.928Z,99967.19
2023-02-27T07:19:43.705Z,100001.25
2023-02-27T07:24:45.508Z,99992.38
2023-02-27T07:29:47.265Z,100064.28
2023-02-27T07:34:49.051Z,100068.34
2023-02-27T07:39:50.818Z,100243.94
2023-02-27T07:44:52.553Z,99968.75
2023-02-27T07:49:54.376Z,100029.84
2023-02-27T07:54:56.127Z,100023.94
2023-02-27T07:59:58.560Z,100052.72
2023-02-27T08:05:00.340Z,100096.03
2023-02-27T08:10:02.685Z,99972.09
2023-02-27T08:15:04.954Z,99974.81
2023-02-27T08:20:07.612Z,100217.59
2023-02-27T08:25:13.736Z,100044.66
2023-02-27T08:30:17.069Z,99976.78
2023-02-27T08:35:19.085Z,99998.16
2023-02-27T08:40:20.834Z,100238.84
2023-02-27T08:45:22.739Z,100000.97
2023-02-27T08:50:24.569Z,100139.25
2023-02-27T08:55:26.341Z,100140.69
2023-02-27T09:00:29.091Z,100178.81
2023-02-27T15:21:01.697Z,100316.34
2023-02-27T15:31:32.296Z,100281.66
2023-02-27T15:36:36.615Z,100304.47
2023-02-27T15:41:38.954Z,100399.84
2023-02-27T15:46:42.239Z,100348.94
2023-02-27T15:51:46.485Z,100321.00
2023-02-27T15:56:48.602Z,100324.97
2023-02-27T16:01:52.740Z,100431.28
2023-02-27T16:07:05.489Z,100407.31
2023-02-27T16:12:30.121Z,100526.50
2023-02-27T16:17:33.277Z,100466.16
2023-02-27T16:22:34.989Z,100328.78
2023-02-27T16:27:37.167Z,100441.44
2023-02-27T16:32:45.925Z,100348.50
2023-02-27T16:37:49.400Z,100307.91
2023-02-27T16:42:52.262Z,100383.69
2023-02-27T16:47:56.522Z,100445.69
2023-02-27T16:52:58.134Z,100562.41
2023-02-27T16:57:59.817Z,100495.34
2023-02-27T17:03:01.522Z,100420.31
2023-02-27T17:08:03.362Z,100441.78
2023-02-27T17:13:05.044Z,100385.34
2023-02-27T17:18:09.094Z,100383.66
2023-02-27T17:23:13.489Z,100525.59
2023-02-27T17:28:16.131Z,100568.00
2023-02-27T17:33:18.208Z,100510.19
2023-02-27T17:38:19.946Z,100454.88
2023-02-27T17:43:21.606Z,100513.75
2023-02-27T17:48:24.469Z,100506.16
2023-02-27T17:53:26.140Z,100474.03
2023-02-27T17:58:27.930Z,100470.16
2023-02-27T18:03:29.656Z,100504.31
2023-02-27T18:08:31.732Z,100517.59
2023-02-27T18:13:33.350Z,100425.22
2023-02-27T18:18:36.599Z,100513.78
2023-02-27T18:23:38.708Z,100499.47
2023-02-27T18:28:40.372Z,100493.97
2023-02-27T18:33:42.068Z,100461.00
2023-02-27T18:38:44.562Z,100394.78
2023-02-27T18:43:46.307Z,100524.53
2023-02-27T18:48:47.984Z,100598.94
2023-02-27T18:53:50.669Z,100608.44
2023-02-27T18:58:54.081Z,100395.06
2023-02-27T19:04:03.433Z,100485.66
2023-02-27T19:09:06.086Z,100502.31
2023-02-27T19:14:10.768Z,100562.09
2023-02-27T19:19:12.434Z,100519.38
2023-02-27T19:24:16.792Z,100401.06
2023-02-27T19:29:18.614Z,100425.00
2023-02-27T19:34:22.329Z,100594.13
2023-02-27T19:39:24.033Z,100459.00
2023-02-27T19:44:26.687Z,100502.38
2023-02-27T19:49:28.330Z,100576.19
2023-02-27T19:54:30.686Z,100489.22
2023-02-27T19:59:32.329Z,100494.75
2023-02-27T20:04:34.357Z,100547.38
2023-02-27T20:09:36.163Z,100586.53
2023-02-27T20:14:37.890Z,100429.16
2023-02-27T20:19:39.611Z,100524.06
2023-02-27T20:24:41.297Z,100500.56
2023-02-27T20:29:43.065Z,100551.06
2023-02-27T20:34:44.780Z,100529.47
2023-02-27T20:39:46.608Z,100503.25
2023-02-27T20:44:48.692Z,100542.22
2023-02-27T20:49:50.471Z,100450.63
2023-02-27T20:54:52.194Z,100329.72
2023-02-27T20:59:53.858Z,100472.41
2023-02-27T21:04:57.502Z,100476.97
2023-02-27T21:09:59.516Z,100498.03
2023-02-27T21:15:01.172Z,100488.34
2023-02-27T21:20:06.739Z,100463.69
2023-02-27T21:25:08.868Z,100463.34
2023-02-27T21:30:11.755Z,100404.56
2023-02-27T21:35:13.606Z,100518.75
2023-02-27T21:40:16.145Z,100451.94
2023-02-27T21:45:17.821Z,100402.66
2023-02-27T21:50:22.985Z,100461.38
2023-02-27T21:55:24.623Z,100332.41
2023-02-27T22:00:29.284Z,100402.56
2023-02-27T22:05:30.931Z,100396.56
2023-02-27T22:10:36.208Z,100337.06
2023-02-27T22:15:38.178Z,100385.50
2023-02-27T22:20:40.174Z,100432.78
2023-02-27T22:25:41.935Z,100523.97
2023-02-27T22:30:43.706Z,100477.34
2023-02-27T22:35:45.380Z,100520.69
2023-02-27T22:40:47.088Z,100467.66
2023-02-27T22:45:49.122Z,100415.09
2023-02-27T22:50:59.096Z,100386.03
2023-02-27T22:56:00.777Z,100383.00
2023-02-27T23:01:11.893Z,100421.56
2023-02-27T23:06:16.364Z,100385.81
2023-02-27T23:11:19.213Z,100312.72
2023-02-27T23:16:21.111Z,100287.03
2023-02-27T23:21:31.971Z,100204.47
2023-02-27T23:26:41.894Z,100508.19
2023-02-27T23:31:43.625Z,100177.59
2023-02-27T23:36:45.371Z,100273.94
2023-02-27T23:41:47.022Z,100249.00
2023-02-27T23:46:48.699Z,100380.75
2023-02-27T23:51:50.399Z,100399.91
2023-02-27T23:56:52.036Z,100359.53
